createdAt,value
2019-01-21T00:00:20.516Z,-7.60
2019-01-21T00:02:49.882Z,-7.60
2019-01-21T00:05:19.191Z,-7.60
2019-01-21T00:07:48.533Z,-7.60
2019-01-21T00:10:17.841Z,-7.60
2019-01-21T00:12:47.187Z,-7.60
2019-01-21T00:15:16.534Z,-7.70
2019-01-21T00:17:45.817Z,-7.80
2019-01-21T00:20:15.162Z,-7.80
2019-01-21T00:22:44.469Z,-7.70
2019-01-21T00:25:13.778Z,-7.90
2019-01-21T00:27:43.107Z,-7.90
2019-01-21T00:30:12.913Z,-7.90
2019-01-21T00:32:42.250Z,-7.90
2019-01-21T00:35:11.571Z,-7.90
2019-01-21T00:37:40.866Z,-7.90
2019-01-21T00:40:16.206Z,-7.90
2019-01-21T00:42:45.512Z,-8.00
2019-01-21T00:45:14.841Z,-8.10
2019-01-21T00:47:44.148Z,-8.00
2019-01-21T00:50:13.937Z,-8.30
2019-01-21T00:52:43.246Z,-8.00
2019-01-21T00:55:13.535Z,-8.30
2019-01-21T00:57:42.847Z,-8.20
2019-01-21T01:00:18.228Z,-8.10
2019-01-21T01:02:47.520Z,-8.10
2019-01-21T01:05:17.093Z,-8.20
2019-01-21T01:07:46.398Z,-8.10
2019-01-21T01:10:16.078Z,-8.10
2019-01-21T01:12:45.416Z,-8.20
2019-01-21T01:15:15.222Z,-8.20
2019-01-21T01:17:44.529Z,-8.40
2019-01-21T01:20:16.189Z,-8.30
2019-01-21T01:22:45.479Z,-8.20
2019-01-21T01:25:14.794Z,-8.40
2019-01-21T01:27:44.137Z,-8.20
2019-01-21T01:30:15.301Z,-8.50
2019-01-21T01:32:44.713Z,-8.30
2019-01-21T01:35:15.139Z,-8.40
2019-01-21T01:37:44.643Z,-8.50
2019-01-21T01:40:15.838Z,-8.30
2019-01-21T01:42:46.370Z,-8.40
2019-01-21T01:45:21.372Z,-8.70
2019-01-21T01:47:54.538Z,-8.60
2019-01-21T01:50:23.873Z,-8.60
2019-01-21T01:52:53.206Z,-8.70
2019-01-21T01:55:23.474Z,-8.70
2019-01-21T01:57:53.527Z,-8.40
2019-01-21T02:00:22.872Z,-8.50
2019-01-21T02:02:52.205Z,-8.60
2019-01-21T02:05:21.910Z,-8.70
2019-01-21T02:07:51.345Z,-8.40
2019-01-21T02:10:20.689Z,-8.50
2019-01-21T02:12:50.186Z,-8.50
2019-01-21T02:15:19.607Z,-8.70
2019-01-21T02:17:52.176Z,-8.80
2019-01-21T02:20:19.843Z,-8.90
2019-01-21T02:22:51.430Z,-8.70
2019-01-21T02:25:23.784Z,-8.80
2019-01-21T02:28:12.704Z,-8.90
2019-01-21T02:31:03.267Z,-8.70
2019-01-21T02:34:09.503Z,-8.50
2019-01-21T02:37:15.574Z,-8.50
2019-01-21T02:39:50.873Z,-8.20
2019-01-21T02:42:32.301Z,-8.30
2019-01-21T02:45:19.830Z,-8.10
2019-01-21T02:48:01.010Z,-8.10
2019-01-21T02:50:50.356Z,-8.30
2019-01-21T02:53:25.954Z,-8.10
2019-01-21T02:56:13.787Z,-8.20
2019-01-21T02:59:04.494Z,-8.50
2019-01-21T03:01:59.697Z,-8.40
2019-01-21T03:04:49.061Z,-8.60
2019-01-21T03:07:33.641Z,-8.70
2019-01-21T03:10:25.705Z,-8.80
2019-01-21T03:13:03.965Z,-8.60
2019-01-21T03:15:42.406Z,-8.70
2019-01-21T03:18:34.665Z,-8.90
2019-01-21T03:21:24.907Z,-8.70
2019-01-21T03:24:30.739Z,-9.00
2019-01-21T03:27:20.860Z,-8.90
2019-01-21T03:30:02.554Z,-8.90
2019-01-21T03:32:42.249Z,-9.00
2019-01-21T03:35:32.770Z,-9.10
2019-01-21T03:38:23.400Z,-9.10
2019-01-21T03:41:02.145Z,-9.00
2019-01-21T03:43:51.463Z,-9.10
2019-01-21T03:46:42.175Z,-8.90
2019-01-21T03:49:26.647Z,-8.90
2019-01-21T03:52:26.036Z,-9.20
2019-01-21T03:54:55.425Z,-9.10
2019-01-21T03:57:28.025Z,-9.00
2019-01-21T04:00:00.571Z,-8.90
2019-01-21T04:02:33.165Z,-9.10
2019-01-21T04:05:20.632Z,-9.10
2019-01-21T04:07:59.082Z,-8.90
2019-01-21T04:10:46.433Z,-9.00
2019-01-21T04:13:31.033Z,-9.00
2019-01-21T04:16:21.702Z,-8.60
2019-01-21T04:19:02.828Z,-8.70
2019-01-21T04:21:58.269Z,-8.80
2019-01-21T04:24:33.484Z,-8.70
2019-01-21T04:27:38.147Z,-8.80
2019-01-21T04:30:31.956Z,-9.00
2019-01-21T04:33:26.996Z,-8.90
2019-01-21T04:36:14.536Z,-9.00
2019-01-21T04:39:02.420Z,-9.00
2019-01-21T04:41:44.194Z,-9.10
2019-01-21T04:44:31.782Z,-8.90
2019-01-21T04:47:09.205Z,-9.10
2019-01-21T04:49:41.832Z,-8.90
2019-01-21T04:52:32.527Z,-9.00
2019-01-21T04:55:29.283Z,-9.00
2019-01-21T04:58:10.770Z,-9.00
2019-01-21T05:00:59.668Z,-9.00
2019-01-21T05:03:54.965Z,-8.80
2019-01-21T05:06:56.396Z,-9.00
2019-01-21T05:09:34.785Z,-9.00
2019-01-21T05:12:10.272Z,-8.90
2019-01-21T05:15:11.805Z,-9.00
2019-01-21T05:18:00.700Z,-8.80
2019-01-21T05:20:51.301Z,-9.00
2019-01-21T05:23:46.555Z,-9.00
2019-01-21T05:26:36.595Z,-8.80
2019-01-21T05:29:14.955Z,-9.00
2019-01-21T05:32:05.432Z,-9.00
2019-01-21T05:34:41.244Z,-8.90
2019-01-21T05:37:28.694Z,-9.00
2019-01-21T05:40:06.904Z,-9.10
2019-01-21T05:43:02.016Z,-9.00
2019-01-21T05:45:44.296Z,-9.10
2019-01-21T05:48:28.382Z,-8.80
2019-01-21T05:51:17.539Z,-9.00
2019-01-21T05:54:05.063Z,-9.10
2019-01-21T05:56:43.590Z,-8.80
2019-01-21T05:59:38.778Z,-9.00
2019-01-21T06:02:29.523Z,-9.10
2019-01-21T06:05:29.662Z,-9.10
2019-01-21T06:08:23.215Z,-9.00
2019-01-21T06:10:55.855Z,-9.10
2019-01-21T06:13:57.212Z,-9.10
2019-01-21T06:16:46.343Z,-8.90
2019-01-21T06:19:30.763Z,-8.60
2019-01-21T06:22:12.429Z,-8.70
2019-01-21T06:24:47.832Z,-8.60
2019-01-21T06:27:29.265Z,-8.70
2019-01-21T06:30:25.671Z,-8.50
2019-01-21T06:32:58.278Z,-8.80
2019-01-21T06:35:30.904Z,-8.70
2019-01-21T06:38:09.311Z,-8.70
2019-01-21T06:40:44.597Z,-8.50
2019-01-21T06:43:20.053Z,-8.60
2019-01-21T06:46:04.302Z,-8.60
2019-01-21T06:48:53.372Z,-8.50
2019-01-21T06:51:25.965Z,-8.70
2019-01-21T06:54:01.226Z,-8.60
2019-01-21T06:56:48.833Z,-8.50
2019-01-21T06:59:33.702Z,-8.70
2019-01-21T07:02:11.938Z,-8.40
2019-01-21T07:05:06.780Z,-8.60
2019-01-21T07:07:54.605Z,-8.40
2019-01-21T07:10:27.201Z,-8.40
2019-01-21T07:13:09.332Z,-8.20
2019-01-21T07:15:59.749Z,-8.10
2019-01-21T07:18:47.199Z,-8.10
2019-01-21T07:21:43.812Z,-8.40
2019-01-21T07:24:39.203Z,-8.20
2019-01-21T07:27:11.784Z,-8.30
2019-01-21T07:29:56.307Z,-8.10
2019-01-21T07:32:37.713Z,-8.20
2019-01-21T07:35:10.338Z,-8.20
2019-01-21T07:37:45.999Z,-8.00
2019-01-21T07:40:27.544Z,-8.10
2019-01-21T07:43:27.606Z,-8.20
2019-01-21T07:46:00.275Z,-8.20
2019-01-21T07:48:49.744Z,-8.10
2019-01-21T07:51:31.717Z,-8.00
2019-01-21T07:54:34.935Z,-7.60
2019-01-21T07:57:27.287Z,-7.80
2019-01-21T08:00:11.092Z,-7.80
2019-01-21T08:03:02.008Z,-7.60
2019-01-21T08:05:46.370Z,-7.40
2019-01-21T08:08:37.096Z,-7.40
2019-01-21T08:11:24.302Z,-7.30
2019-01-21T08:13:56.952Z,-7.30
2019-01-21T08:16:47.570Z,-6.90
2019-01-21T08:19:24.299Z,-6.60
2019-01-21T08:22:00.399Z,-6.40
2019-01-21T08:24:53.612Z,-6.30
2019-01-21T08:27:31.759Z,-6.10
2019-01-21T08:30:16.240Z,-5.60
2019-01-21T08:32:54.751Z,-5.50
2019-01-21T08:35:33.293Z,-5.30
2019-01-21T08:38:21.090Z,-5.00
2019-01-21T08:41:21.201Z,-4.70
2019-01-21T08:43:56.419Z,-4.50
2019-01-21T08:46:34.556Z,-4.10
2019-01-21T08:49:21.940Z,-3.70
2019-01-21T08:52:15.846Z,-3.30
2019-01-21T08:55:00.551Z,-3.70
2019-01-21T08:57:52.479Z,-3.50
2019-01-21T09:00:43.292Z,-3.10
2019-01-21T09:03:36.969Z,-2.50
2019-01-21T09:06:18.275Z,-3.10
2019-01-21T09:09:04.334Z,-2.10
2019-01-21T09:11:40.033Z,-1.50
2019-01-21T09:14:30.885Z,-1.30
2019-01-21T09:17:20.929Z,-0.90
2019-01-21T09:20:11.664Z,-0.60
2019-01-21T09:22:58.610Z,-0.50
2019-01-21T09:25:34.064Z,-0.10
2019-01-21T09:28:15.366Z,0.00
2019-01-21T09:30:53.820Z,0.20
2019-01-21T09:33:37.753Z,0.40
2019-01-21T09:36:30.398Z,0.70
2019-01-21T09:39:20.689Z,1.00
2019-01-21T09:42:08.031Z,1.10
2019-01-21T09:44:45.965Z,1.50
2019-01-21T09:47:14.374Z,1.80
2019-01-21T09:49:43.991Z,2.00
2019-01-21T09:52:14.724Z,2.20
2019-01-21T09:54:44.183Z,2.30
2019-01-21T09:57:16.625Z,2.60
2019-01-21T09:59:46.985Z,2.70
2019-01-21T10:02:16.469Z,2.90
2019-01-21T10:04:46.103Z,3.00
2019-01-21T10:07:21.359Z,3.00
2019-01-21T10:09:59.738Z,3.20
2019-01-21T10:12:53.819Z,3.30
2019-01-21T10:15:35.044Z,3.30
2019-01-21T10:18:10.638Z,3.20
2019-01-21T10:20:43.259Z,3.20
2019-01-21T10:23:21.923Z,3.00
2019-01-21T10:26:03.514Z,3.30
2019-01-21T10:28:45.069Z,3.30
2019-01-21T10:31:20.398Z,3.60
2019-01-21T10:34:17.191Z,3.60
2019-01-21T10:36:52.536Z,3.50
2019-01-21T10:39:25.104Z,3.70
2019-01-21T10:42:16.099Z,3.80
2019-01-21T10:45:12.941Z,3.90
2019-01-21T10:47:45.503Z,3.90
2019-01-21T10:50:21.217Z,4.00
2019-01-21T10:53:12.173Z,4.20
